sensor_id;sensor_type;location;lat;lon;timestamp;pressure;altitude;pressure_sealevel;temperature;humidity
43503;BME280;29098;48.184;16.298;2022-08-05T00:02:09;99172.59;;;21.86;60.86
43503;BME280;29098;48.184;16.298;2022-08-05T00:04:35;99158.56;;;21.74;61.36
43503;BME280;29098;48.184;16.298;2022-08-05T00:07:01;99151.63;;;21.78;61.16
43503;BME280;29098;48.184;16.298;2022-08-05T00:09:26;99163.44;;;21.77;61.26
43503;BME280;29098;48.184;16.298;2022-08-05T00:11:52;99151.66;;;21.83;61.25
43503;BME280;29098;48.184;16.298;2022-08-05T00:14:18;99157.94;;;21.56;62.09
43503;BME280;29098;48.184;16.298;2022-08-05T00:16:44;99150.91;;;21.50;62.63
43503;BME280;29098;48.184;16.298;2022-08-05T00:19:10;99144.47;;;21.51;62.78
43503;BME280;29098;48.184;16.298;2022-08-05T00:21:36;99152.59;;;21.61;62.87
43503;BME280;29098;48.184;16.298;2022-08-05T00:24:02;99143.97;;;21.59;62.79
43503;BME280;29098;48.184;16.298;2022-08-05T00:26:27;99141.59;;;21.20;64.01
43503;BME280;29098;48.184;16.298;2022-08-05T00:28:53;99132.09;;;21.40;63.38
43503;BME280;29098;48.184;16.298;2022-08-05T00:31:18;99139.09;;;21.46;62.61
43503;BME280;29098;48.184;16.298;2022-08-05T00:33:44;99135.53;;;21.35;63.35
43503;BME280;29098;48.184;16.298;2022-08-05T00:36:10;99134.72;;;21.34;63.35
43503;BME280;29098;48.184;16.298;2022-08-05T00:38:35;99134.47;;;21.36;63.21
43503;BME280;29098;48.184;16.298;2022-08-05T00:41:03;99139.91;;;21.46;63.17
43503;BME280;29098;48.184;16.298;2022-08-05T00:43:32;99122.63;;;21.27;63.68
43503;BME280;29098;48.184;16.298;2022-08-05T00:45:58;99122.88;;;21.25;63.64
43503;BME280;29098;48.184;16.298;2022-08-05T00:48:23;99129.25;;;21.19;64.01
43503;BME280;29098;48.184;16.298;2022-08-05T00:50:50;99116.59;;;21.09;64.26
43503;BME280;29098;48.184;16.298;2022-08-05T00:53:20;99125.59;;;21.30;64.00
43503;BME280;29098;48.184;16.298;2022-08-05T00:55:47;99124.00;;;21.34;63.85
43503;BME280;29098;48.184;16.298;2022-08-05T00:58:14;99126.34;;;21.20;63.84
43503;BME280;29098;48.184;16.298;2022-08-05T01:00:43;99114.28;;;21.23;64.20
43503;BME280;29098;48.184;16.298;2022-08-05T01:03:09;99126.00;;;21.12;64.15
43503;BME280;29098;48.184;16.298;2022-08-05T01:05:35;99104.53;;;21.06;65.15
43503;BME280;29098;48.184;16.298;2022-08-05T01:08:03;99123.53;;;21.05;65.39
43503;BME280;29098;48.184;16.298;2022-08-05T01:10:35;99116.34;;;21.11;65.25
43503;BME280;29098;48.184;16.298;2022-08-05T01:15:58;99105.69;;;21.21;64.64
43503;BME280;29098;48.184;16.298;2022-08-05T01:18:30;99114.19;;;21.13;65.23
43503;BME280;29098;48.184;16.298;2022-08-05T01:29:52;99110.44;;;21.08;65.33
43503;BME280;29098;48.184;16.298;2022-08-05T01:32:22;99110.09;;;21.00;65.89
43503;BME280;29098;48.184;16.298;2022-08-05T01:34:57;99106.34;;;20.96;66.51
43503;BME280;29098;48.184;16.298;2022-08-05T01:37:31;99115.75;;;21.03;66.06
43503;BME280;29098;48.184;16.298;2022-08-05T01:39:58;99108.19;;;20.95;66.43
43503;BME280;29098;48.184;16.298;2022-08-05T01:42:26;99103.84;;;20.89;66.58
43503;BME280;29098;48.184;16.298;2022-08-05T01:44:55;99099.00;;;20.86;66.47
43503;BME280;29098;48.184;16.298;2022-08-05T01:47:22;99091.53;;;20.88;66.78
43503;BME280;29098;48.184;16.298;2022-08-05T01:49:51;99106.03;;;20.92;66.60
43503;BME280;29098;48.184;16.298;2022-08-05T01:52:20;99096.88;;;20.88;66.52
43503;BME280;29098;48.184;16.298;2022-08-05T01:54:51;99097.69;;;20.88;66.84
43503;BME280;29098;48.184;16.298;2022-08-05T01:57:29;99104.22;;;20.70;67.83
43503;BME280;29098;48.184;16.298;2022-08-05T02:00:00;99090.59;;;20.77;67.26
43503;BME280;29098;48.184;16.298;2022-08-05T02:02:30;99096.00;;;20.82;67.10
43503;BME280;29098;48.184;16.298;2022-08-05T02:05:03;99099.00;;;20.86;66.79
43503;BME280;29098;48.184;16.298;2022-08-05T02:07:30;99099.66;;;20.71;67.93
43503;BME280;29098;48.184;16.298;2022-08-05T02:09:57;99088.56;;;20.57;67.83
43503;BME280;29098;48.184;16.298;2022-08-05T02:12:30;99088.63;;;20.62;67.82
43503;BME280;29098;48.184;16.298;2022-08-05T02:15:40;99090.56;;;20.72;67.65
43503;BME280;29098;48.184;16.298;2022-08-05T02:18:06;99076.88;;;20.68;67.79
43503;BME280;29098;48.184;16.298;2022-08-05T02:21:02;99079.41;;;20.52;68.21
43503;BME280;29098;48.184;16.298;2022-08-05T02:23:32;99096.53;;;20.51;68.60
43503;BME280;29098;48.184;16.298;2022-08-05T02:26:00;99070.75;;;20.40;69.16
43503;BME280;29098;48.184;16.298;2022-08-05T02:28:28;99083.72;;;20.53;68.70
43503;BME280;29098;48.184;16.298;2022-08-05T02:31:03;99090.13;;;20.52;68.57
43503;BME280;29098;48.184;16.298;2022-08-05T02:33:31;99091.69;;;20.48;68.77
43503;BME280;29098;48.184;16.298;2022-08-05T02:36:00;99098.00;;;20.37;69.57
43503;BME280;29098;48.184;16.298;2022-08-05T02:38:28;99079.72;;;20.29;69.88
43503;BME280;29098;48.184;16.298;2022-08-05T02:40:56;99085.75;;;20.41;69.40
43503;BME280;29098;48.184;16.298;2022-08-05T02:43:23;99089.78;;;20.44;69.52
43503;BME280;29098;48.184;16.298;2022-08-05T02:45:49;99084.69;;;20.42;69.78
43503;BME280;29098;48.184;16.298;2022-08-05T02:48:16;99079.88;;;20.44;69.35
43503;BME280;29098;48.184;16.298;2022-08-05T02:50:43;99076.59;;;20.37;69.39
43503;BME280;29098;48.184;16.298;2022-08-05T02:53:13;99087.28;;;20.32;69.99
43503;BME280;29098;48.184;16.298;2022-08-05T02:55:39;99086.41;;;20.26;70.33
43503;BME280;29098;48.184;16.298;2022-08-05T02:58:05;99081.31;;;20.24;70.49
43503;BME280;29098;48.184;16.298;2022-08-05T03:00:32;99071.16;;;20.26;71.11
43503;BME280;29098;48.184;16.298;2022-08-05T03:03:00;99069.44;;;20.15;70.68
43503;BME280;29098;48.184;16.298;2022-08-05T03:05:26;99082.25;;;20.40;70.11
43503;BME280;29098;48.184;16.298;2022-08-05T03:07:53;99074.22;;;20.13;71.23
43503;BME280;29098;48.184;16.298;2022-08-05T03:10:19;99077.09;;;20.06;71.61
43503;BME280;29098;48.184;16.298;2022-08-05T03:12:45;99077.41;;;20.10;71.52
43503;BME280;29098;48.184;16.298;2022-08-05T03:15:11;99068.38;;;19.94;72.28
43503;BME280;29098;48.184;16.298;2022-08-05T03:17:37;99076.84;;;20.08;71.54
43503;BME280;29098;48.184;16.298;2022-08-05T03:20:03;99062.16;;;20.10;71.35
43503;BME280;29098;48.184;16.298;2022-08-05T03:22:29;99070.88;;;20.01;72.04
43503;BME280;29098;48.184;16.298;2022-08-05T03:24:56;99061.34;;;20.10;71.74
43503;BME280;29098;48.184;16.298;2022-08-05T03:27:22;99071.44;;;20.03;72.01
43503;BME280;29098;48.184;16.298;2022-08-05T03:29:50;99075.66;;;19.98;72.28
43503;BME280;29098;48.184;16.298;2022-08-05T03:32:16;99056.16;;;19.98;72.75
43503;BME280;29098;48.184;16.298;2022-08-05T03:34:44;99075.03;;;19.91;72.68
43503;BME280;29098;48.184;16.298;2022-08-05T03:37:12;99076.03;;;20.07;72.16
43503;BME280;29098;48.184;16.298;2022-08-05T03:39:38;99060.59;;;19.92;72.30
43503;BME280;29098;48.184;16.298;2022-08-05T03:42:15;99073.25;;;19.97;72.42
43503;BME280;29098;48.184;16.298;2022-08-05T03:44:41;99068.00;;;19.85;72.73
43503;BME280;29098;48.184;16.298;2022-08-05T03:47:06;99082.00;;;19.92;72.85
43503;BME280;29098;48.184;16.298;2022-08-05T03:49:32;99073.25;;;19.97;72.70
43503;BME280;29098;48.184;16.298;2022-08-05T03:52:01;99081.09;;;20.04;72.12
43503;BME280;29098;48.184;16.298;2022-08-05T03:54:33;99084.19;;;19.95;72.44
43503;BME280;29098;48.184;16.298;2022-08-05T03:57:01;99079.53;;;20.08;72.12
43503;BME280;29098;48.184;16.298;2022-08-05T03:59:33;99079.03;;;20.11;72.02
43503;BME280;29098;48.184;16.298;2022-08-05T04:02:00;99088.19;;;20.15;71.77
43503;BME280;29098;48.184;16.298;2022-08-05T04:04:28;99079.22;;;20.04;72.25
43503;BME280;29098;48.184;16.298;2022-08-05T04:06:55;99076.25;;;20.01;72.31
43503;BME280;29098;48.184;16.298;2022-08-05T04:09:21;99082.50;;;20.11;72.00
43503;BME280;29098;48.184;16.298;2022-08-05T04:11:48;99081.59;;;20.01;73.04
43503;BME280;29098;48.184;16.298;2022-08-05T04:14:15;99077.78;;;19.96;73.67
43503;BME280;29098;48.184;16.298;2022-08-05T04:16:42;99072.44;;;19.96;73.40
43503;BME280;29098;48.184;16.298;2022-08-05T04:19:10;99065.47;;;19.95;73.42
43503;BME280;29098;48.184;16.298;2022-08-05T04:21:37;99065.91;;;19.87;73.88
43503;BME280;29098;48.184;16.298;2022-08-05T04:24:03;99066.34;;;20.01;73.37
43503;BME280;29098;48.184;16.298;2022-08-05T04:26:29;99079.03;;;20.11;73.70
43503;BME280;29098;48.184;16.298;2022-08-05T04:28:55;99080.91;;;20.10;73.76
43503;BME280;29098;48.184;16.298;2022-08-05T04:31:21;99070.94;;;20.06;73.82
43503;BME280;29098;48.184;16.298;2022-08-05T04:33:47;99077.00;;;20.23;73.15
43503;BME280;29098;48.184;16.298;2022-08-05T04:36:13;99066.78;;;20.15;73.59
43503;BME280;29098;48.184;16.298;2022-08-05T04:38:41;99061.97;;;20.17;74.09
43503;BME280;29098;48.184;16.298;2022-08-05T04:41:07;99073.47;;;20.18;74.37
43503;BME280;29098;48.184;16.298;2022-08-05T04:43:33;99067.16;;;20.29;73.24
43503;BME280;29098;48.184;16.298;2022-08-05T04:45:58;99081.00;;;20.48;72.07
43503;BME280;29098;48.184;16.298;2022-08-05T04:48:24;99088.41;;;20.41;74.18
43503;BME280;29098;48.184;16.298;2022-08-05T04:50:49;99081.47;;;20.40;73.56
43503;BME280;29098;48.184;16.298;2022-08-05T04:53:16;99064.47;;;20.57;72.73
43503;BME280;29098;48.184;16.298;2022-08-05T04:55:42;99069.06;;;20.61;72.99
43503;BME280;29098;48.184;16.298;2022-08-05T04:58:11;99065.28;;;20.57;73.54
43503;BME280;29098;48.184;16.298;2022-08-05T05:00:38;99068.22;;;20.56;73.67
43503;BME280;29098;48.184;16.298;2022-08-05T05:03:05;99061.56;;;20.63;73.68
43503;BME280;29098;48.184;16.298;2022-08-05T05:05:33;99079.00;;;20.66;74.18
43503;BME280;29098;48.184;16.298;2022-08-05T05:08:01;99068.28;;;20.66;73.84
43503;BME280;29098;48.184;16.298;2022-08-05T05:10:29;99070.78;;;20.78;73.96
43503;BME280;29098;48.184;16.298;2022-08-05T05:12:55;99076.28;;;20.88;73.14
43503;BME280;29098;48.184;16.298;2022-08-05T05:15:20;99065.09;;;21.02;72.56
43503;BME280;29098;48.184;16.298;2022-08-05T05:17:46;99071.84;;;21.10;72.27
43503;BME280;29098;48.184;16.298;2022-08-05T05:20:12;99069.22;;;21.15;69.36
43503;BME280;29098;48.184;16.298;2022-08-05T05:22:38;99074.69;;;21.35;67.19
43503;BME280;29098;48.184;16.298;2022-08-05T05:25:05;99068.56;;;21.45;66.08
43503;BME280;29098;48.184;16.298;2022-08-05T05:27:32;99064.03;;;21.51;66.88
43503;BME280;29098;48.184;16.298;2022-08-05T05:29:58;99064.06;;;21.56;66.77
43503;BME280;29098;48.184;16.298;2022-08-05T05:32:24;99061.47;;;21.72;65.82
43503;BME280;29098;48.184;16.298;2022-08-05T05:34:50;99062.03;;;21.79;64.94
43503;BME280;29098;48.184;16.298;2022-08-05T05:37:15;99078.19;;;22.00;63.56
43503;BME280;29098;48.184;16.298;2022-08-05T05:39:41;99061.28;;;22.10;62.32
43503;BME280;29098;48.184;16.298;2022-08-05T05:42:07;99055.16;;;22.14;60.00
43503;BME280;29098;48.184;16.298;2022-08-05T05:44:33;99068.34;;;22.37;58.52
43503;BME280;29098;48.184;16.298;2022-08-05T05:46:58;99071.31;;;22.46;58.72
43503;BME280;29098;48.184;16.298;2022-08-05T05:49:24;99071.31;;;22.51;58.97
43503;BME280;29098;48.184;16.298;2022-08-05T05:51:50;99062.19;;;22.52;59.02
43503;BME280;29098;48.184;16.298;2022-08-05T05:54:16;99070.78;;;22.64;58.48
43503;BME280;29098;48.184;16.298;2022-08-05T05:56:42;99070.25;;;22.73;58.35
43503;BME280;29098;48.184;16.298;2022-08-05T05:59:08;99069.44;;;22.77;57.25
43503;BME280;29098;48.184;16.298;2022-08-05T06:01:35;99071.06;;;22.89;56.37
43503;BME280;29098;48.184;16.298;2022-08-05T06:04:00;99070.25;;;22.88;56.12
43503;BME280;29098;48.184;16.298;2022-08-05T06:06:26;99071.31;;;23.03;55.31
43503;BME280;29098;48.184;16.298;2022-08-05T06:08:52;99080.44;;;23.07;55.61
43503;BME280;29098;48.184;16.298;2022-08-05T06:11:17;99081.22;;;23.23;55.42
43503;BME280;29098;48.184;16.298;2022-08-05T06:13:43;99078.00;;;23.21;54.67
43503;BME280;29098;48.184;16.298;2022-08-05T06:16:08;99073.97;;;23.23;55.30
43503;BME280;29098;48.184;16.298;2022-08-05T06:18:34;99074.50;;;23.31;55.14
43503;BME280;29098;48.184;16.298;2022-08-05T06:21:02;99067.50;;;23.35;54.49
43503;BME280;29098;48.184;16.298;2022-08-05T06:23:27;99066.16;;;23.37;54.49
43503;BME280;29098;48.184;16.298;2022-08-05T06:25:53;99074.72;;;23.45;54.42
43503;BME280;29098;48.184;16.298;2022-08-05T06:28:18;99071.47;;;23.48;54.17
43503;BME280;29098;48.184;16.298;2022-08-05T06:30:46;99076.59;;;23.55;54.08
43503;BME280;29098;48.184;16.298;2022-08-05T06:33:12;99067.94;;;23.63;54.10
43503;BME280;29098;48.184;16.298;2022-08-05T06:35:37;99081.63;;;23.72;53.40
43503;BME280;29098;48.184;16.298;2022-08-05T06:38:03;99089.38;;;23.84;53.49
43503;BME280;29098;48.184;16.298;2022-08-05T06:40:28;99090.69;;;23.91;53.39
43503;BME280;29098;48.184;16.298;2022-08-05T06:42:54;99092.50;;;24.06;53.34
43503;BME280;29098;48.184;16.298;2022-08-05T06:45:20;99093.31;;;24.12;53.11
43503;BME280;29098;48.184;16.298;2022-08-05T06:47:46;99095.69;;;24.19;53.22
43503;BME280;29098;48.184;16.298;2022-08-05T06:50:11;99094.56;;;24.25;52.86
43503;BME280;29098;48.184;16.298;2022-08-05T06:52:37;99082.13;;;24.34;52.46
43503;BME280;29098;48.184;16.298;2022-08-05T06:55:03;99074.25;;;24.43;52.20
43503;BME280;29098;48.184;16.298;2022-08-05T06:57:29;99079.88;;;24.47;52.30
43503;BME280;29098;48.184;16.298;2022-08-05T06:59:54;99075.22;;;24.58;51.98
43503;BME280;29098;48.184;16.298;2022-08-05T07:02:20;99085.63;;;24.70;51.68
43503;BME280;29098;48.184;16.298;2022-08-05T07:04:45;99081.28;;;24.74;51.02
43503;BME280;29098;48.184;16.298;2022-08-05T07:07:11;99083.63;;;24.86;51.01
43503;BME280;29098;48.184;16.298;2022-08-05T07:09:36;99088.09;;;25.01;50.31
43503;BME280;29098;48.184;16.298;2022-08-05T07:12:02;99082.34;;;25.08;50.29
43503;BME280;29098;48.184;16.298;2022-08-05T07:14:28;99092.13;;;25.28;49.59
43503;BME280;29098;48.184;16.298;2022-08-05T07:17:12;99080.66;;;25.41;48.76
43503;BME280;29098;48.184;16.298;2022-08-05T07:19:38;99086.50;;;25.54;48.46
43503;BME280;29098;48.184;16.298;2022-08-05T07:22:03;99074.69;;;25.69;48.12
43503;BME280;29098;48.184;16.298;2022-08-05T07:24:29;99070.97;;;25.84;47.97
43503;BME280;29098;48.184;16.298;2022-08-05T07:26:54;99078.75;;;26.10;47.29
43503;BME280;29098;48.184;16.298;2022-08-05T07:29:20;99080.44;;;26.25;46.63
43503;BME280;29098;48.184;16.298;2022-08-05T07:31:45;99086.56;;;26.50;45.90
43503;BME280;29098;48.184;16.298;2022-08-05T07:34:11;99081.22;;;26.64;45.57
43503;BME280;29098;48.184;16.298;2022-08-05T07:36:37;99081.81;;;26.94;45.11
43503;BME280;29098;48.184;16.298;2022-08-05T07:39:04;99085.34;;;27.08;44.68
43503;BME280;29098;48.184;16.298;2022-08-05T07:41:30;99081.03;;;27.21;43.98
43503;BME280;29098;48.184;16.298;2022-08-05T07:43:57;99064.22;;;27.39;43.53
43503;BME280;29098;48.184;16.298;2022-08-05T07:46:27;99072.03;;;27.54;43.21
43503;BME280;29098;48.184;16.298;2022-08-05T07:48:55;99071.53;;;27.66;43.05
43503;BME280;29098;48.184;16.298;2022-08-05T07:51:21;99066.47;;;27.87;42.84
43503;BME280;29098;48.184;16.298;2022-08-05T07:53:46;99084.69;;;28.10;42.37
43503;BME280;29098;48.184;16.298;2022-08-05T07:56:12;99082.28;;;28.22;41.63
43503;BME280;29098;48.184;16.298;2022-08-05T07:58:38;99084.34;;;28.25;40.91
43503;BME280;29098;48.184;16.298;2022-08-05T08:01:03;99082.47;;;28.49;40.88
43503;BME280;29098;48.184;16.298;2022-08-05T08:03:29;99080.69;;;28.67;40.22
43503;BME280;29098;48.184;16.298;2022-08-05T08:05:54;99084.72;;;29.01;40.37
43503;BME280;29098;48.184;16.298;2022-08-05T08:08:20;99087.13;;;29.03;39.35
43503;BME280;29098;48.184;16.298;2022-08-05T08:10:45;99094.91;;;29.27;39.16
43503;BME280;29098;48.184;16.298;2022-08-05T08:13:11;99087.25;;;29.38;39.39
43503;BME280;29098;48.184;16.298;2022-08-05T08:15:37;99087.66;;;29.54;38.73
43503;BME280;29098;48.184;16.298;2022-08-05T08:18:02;99083.88;;;29.82;37.35
43503;BME280;29098;48.184;16.298;2022-08-05T08:20:28;99082.28;;;29.89;37.63
43503;BME280;29098;48.184;16.298;2022-08-05T08:22:55;99079.91;;;29.97;37.97
43503;BME280;29098;48.184;16.298;2022-08-05T08:25:23;99081.53;;;30.06;37.66
43503;BME280;29098;48.184;16.298;2022-08-05T08:27:49;99078.13;;;29.92;38.21
43503;BME280;29098;48.184;16.298;2022-08-05T08:30:15;99069.22;;;30.18;37.92
43503;BME280;29098;48.184;16.298;2022-08-05T08:32:41;99079.88;;;29.70;38.65
43503;BME280;29098;48.184;16.298;2022-08-05T08:35:07;99082.91;;;29.28;39.59
43503;BME280;29098;48.184;16.298;2022-08-05T08:37:33;99086.94;;;28.99;40.37
43503;BME280;29098;48.184;16.298;2022-08-05T08:39:58;99074.63;;;28.70;39.93
43503;BME280;29098;48.184;16.298;2022-08-05T08:42:24;99070.06;;;28.56;40.14
43503;BME280;29098;48.184;16.298;2022-08-05T08:44:53;99079.00;;;28.57;40.60
43503;BME280;29098;48.184;16.298;2022-08-05T08:47:24;99070.50;;;28.27;40.92
43503;BME280;29098;48.184;16.298;2022-08-05T08:49:52;99069.88;;;28.30;41.27
43503;BME280;29098;48.184;16.298;2022-08-05T08:52:22;99070.41;;;28.32;41.98
43503;BME280;29098;48.184;16.298;2022-08-05T08:54:51;99064.16;;;28.32;42.64
43503;BME280;29098;48.184;16.298;2022-08-05T08:57:17;99076.75;;;28.50;42.02
43503;BME280;29098;48.184;16.298;2022-08-05T08:59:43;99058.66;;;28.46;41.74
43503;BME280;29098;48.184;16.298;2022-08-05T09:02:09;99060.88;;;28.66;41.72
43503;BME280;29098;48.184;16.298;2022-08-05T09:04:36;99064.41;;;28.67;41.28
43503;BME280;29098;48.184;16.298;2022-08-05T09:07:06;99067.66;;;28.78;41.93
43503;BME280;29098;48.184;16.298;2022-08-05T09:09:33;99055.69;;;28.79;42.41
43503;BME280;29098;48.184;16.298;2022-08-05T09:12:00;99064.41;;;28.98;41.39
43503;BME280;29098;48.184;16.298;2022-08-05T09:14:26;99064.13;;;29.00;41.70
43503;BME280;29098;48.184;16.298;2022-08-05T09:16:52;99062.34;;;28.95;41.66
43503;BME280;29098;48.184;16.298;2022-08-05T09:19:18;99061.09;;;29.02;41.06
43503;BME280;29098;48.184;16.298;2022-08-05T09:21:44;99064.59;;;29.02;41.96
43503;BME280;29098;48.184;16.298;2022-08-05T09:24:16;99068.22;;;29.29;40.15
43503;BME280;29098;48.184;16.298;2022-08-05T09:26:46;99065.34;;;29.34;39.89
43503;BME280;29098;48.184;16.298;2022-08-05T09:29:12;99076.44;;;29.47;40.06
43503;BME280;29098;48.184;16.298;2022-08-05T09:31:38;99072.31;;;29.49;39.54
43503;BME280;29098;48.184;16.298;2022-08-05T09:34:08;99067.69;;;29.50;39.84
43503;BME280;29098;48.184;16.298;2022-08-05T09:39:08;99069.16;;;29.65;40.65
43503;BME280;29098;48.184;16.298;2022-08-05T09:41:33;99060.22;;;29.73;39.97
43503;BME280;29098;48.184;16.298;2022-08-05T09:43:59;99072.50;;;29.71;39.70
43503;BME280;29098;48.184;16.298;2022-08-05T09:46:30;99061.34;;;29.72;39.62
43503;BME280;29098;48.184;16.298;2022-08-05T09:48:57;99062.63;;;29.75;40.44
43503;BME280;29098;48.184;16.298;2022-08-05T09:51:33;99067.75;;;29.94;39.35
43503;BME280;29098;48.184;16.298;2022-08-05T09:54:00;99047.75;;;29.90;38.85
43503;BME280;29098;48.184;16.298;2022-08-05T09:56:27;99050.16;;;29.91;39.31
43503;BME280;29098;48.184;16.298;2022-08-05T09:58:59;99042.81;;;30.01;39.14
43503;BME280;29098;48.184;16.298;2022-08-05T10:01:25;99056.44;;;30.10;39.40
43503;BME280;29098;48.184;16.298;2022-08-05T10:04:00;99051.13;;;30.22;38.86
43503;BME280;29098;48.184;16.298;2022-08-05T10:06:27;99052.38;;;30.42;39.40
43503;BME280;29098;48.184;16.298;2022-08-05T10:08:53;99042.28;;;30.60;38.88
43503;BME280;29098;48.184;16.298;2022-08-05T10:11:19;99043.41;;;30.59;38.86
43503;BME280;29098;48.184;16.298;2022-08-05T10:13:44;99043.41;;;30.59;38.49
43503;BME280;29098;48.184;16.298;2022-08-05T10:16:36;99034.28;;;30.73;37.28
43503;BME280;29098;48.184;16.298;2022-08-05T10:19:02;99031.41;;;30.78;37.86
43503;BME280;29098;48.184;16.298;2022-08-05T10:21:28;99044.78;;;30.92;38.72
43503;BME280;29098;48.184;16.298;2022-08-05T10:23:56;99035.50;;;31.23;37.77
43503;BME280;29098;48.184;16.298;2022-08-05T10:26:22;99041.31;;;31.52;37.55
43503;BME280;29098;48.184;16.298;2022-08-05T10:28:47;99032.28;;;31.60;36.74
43503;BME280;29098;48.184;16.298;2022-08-05T10:31:14;99028.56;;;32.07;35.78
43503;BME280;29098;48.184;16.298;2022-08-05T10:33:41;99024.03;;;32.11;35.92
43503;BME280;29098;48.184;16.298;2022-08-05T10:36:08;99020.34;;;31.95;35.44
43503;BME280;29098;48.184;16.298;2022-08-05T10:38:35;99009.16;;;32.09;35.34
43503;BME280;29098;48.184;16.298;2022-08-05T10:43:34;99030.19;;;32.42;34.54
43503;BME280;29098;48.184;16.298;2022-08-05T10:46:04;99021.13;;;32.97;33.68
43503;BME280;29098;48.184;16.298;2022-08-05T10:48:30;99017.88;;;33.44;33.86
43503;BME280;29098;48.184;16.298;2022-08-05T10:50:58;99020.28;;;33.58;32.82
43503;BME280;29098;48.184;16.298;2022-08-05T10:53:36;99014.50;;;33.88;33.13
43503;BME280;29098;48.184;16.298;2022-08-05T10:56:16;99011.19;;;34.24;32.58
43503;BME280;29098;48.184;16.298;2022-08-05T11:01:40;98998.91;;;34.62;31.30
43503;BME280;29098;48.184;16.298;2022-08-05T11:04:11;99008.75;;;34.99;31.60
43503;BME280;29098;48.184;16.298;2022-08-05T11:09:50;99008.56;;;35.99;29.76
43503;BME280;29098;48.184;16.298;2022-08-05T11:15:16;99000.97;;;36.32;29.37
43503;BME280;29098;48.184;16.298;2022-08-05T11:17:49;98993.47;;;36.52;28.66
43503;BME280;29098;48.184;16.298;2022-08-05T11:23:32;98994.63;;;37.25;27.58
43503;BME280;29098;48.184;16.298;2022-08-05T11:33:35;99000.50;;;38.22;27.54
43503;BME280;29098;48.184;16.298;2022-08-05T11:36:03;99001.81;;;38.36;25.21
43503;BME280;29098;48.184;16.298;2022-08-05T11:41:08;98990.41;;;38.34;24.70
43503;BME280;29098;48.184;16.298;2022-08-05T11:43:38;98996.03;;;38.48;24.32
43503;BME280;29098;48.184;16.298;2022-08-05T11:46:05;99011.72;;;38.93;24.15
43503;BME280;29098;48.184;16.298;2022-08-05T11:48:31;98990.28;;;39.17;25.08
43503;BME280;29098;48.184;16.298;2022-08-05T11:50:57;98999.88;;;39.45;24.13
43503;BME280;29098;48.184;16.298;2022-08-05T11:53:23;99000.38;;;39.69;24.37
43503;BME280;29098;48.184;16.298;2022-08-05T11:55:55;98993.78;;;39.99;23.63
43503;BME280;29098;48.184;16.298;2022-08-05T11:58:35;98990.69;;;40.19;22.63
43503;BME280;29098;48.184;16.298;2022-08-05T12:03:27;98978.06;;;40.29;23.11
43503;BME280;29098;48.184;16.298;2022-08-05T12:05:57;98981.97;;;40.20;23.28
43503;BME280;29098;48.184;16.298;2022-08-05T12:08:23;98987.50;;;40.31;22.88
43503;BME280;29098;48.184;16.298;2022-08-05T12:10:49;98994.19;;;39.94;20.16
43503;BME280;29098;48.184;16.298;2022-08-05T12:13:16;98991.84;;;40.10;20.46
43503;BME280;29098;48.184;16.298;2022-08-05T12:15:45;98996.97;;;40.19;20.34
43503;BME280;29098;48.184;16.298;2022-08-05T12:18:16;98979.66;;;40.59;19.60
43503;BME280;29098;48.184;16.298;2022-08-05T12:20:42;98989.13;;;40.87;21.11
43503;BME280;29098;48.184;16.298;2022-08-05T12:23:10;98979.66;;;40.80;21.80
43503;BME280;29098;48.184;16.298;2022-08-05T12:28:31;98982.78;;;40.13;20.02
43503;BME280;29098;48.184;16.298;2022-08-05T12:30:57;98982.66;;;39.81;20.18
43503;BME280;29098;48.184;16.298;2022-08-05T12:33:23;98989.50;;;40.27;20.77
43503;BME280;29098;48.184;16.298;2022-08-05T12:35:49;98985.09;;;39.90;19.27
43503;BME280;29098;48.184;16.298;2022-08-05T12:38:14;98983.56;;;40.14;18.60
43503;BME280;29098;48.184;16.298;2022-08-05T12:40:40;98990.53;;;39.71;19.09
43503;BME280;29098;48.184;16.298;2022-08-05T12:43:06;98987.56;;;40.57;19.35
43503;BME280;29098;48.184;16.298;2022-08-05T12:45:31;98984.78;;;40.60;20.13
43503;BME280;29098;48.184;16.298;2022-08-05T12:47:57;98978.44;;;41.00;19.26
43503;BME280;29098;48.184;16.298;2022-08-05T12:50:22;98978.72;;;41.45;18.32
43503;BME280;29098;48.184;16.298;2022-08-05T12:52:55;98980.34;;;41.35;18.69
43503;BME280;29098;48.184;16.298;2022-08-05T12:55:26;98980.38;;;41.21;18.66
43503;BME280;29098;48.184;16.298;2022-08-05T12:57:53;98973.25;;;41.27;18.13
43503;BME280;29098;48.184;16.298;2022-08-05T13:00:21;98986.25;;;41.41;17.97
43503;BME280;29098;48.184;16.298;2022-08-05T13:02:46;98975.13;;;42.27;17.87
43503;BME280;29098;48.184;16.298;2022-08-05T13:05:12;98987.13;;;42.06;17.08
43503;BME280;29098;48.184;16.298;2022-08-05T13:07:39;98978.69;;;42.27;17.87
43503;BME280;29098;48.184;16.298;2022-08-05T13:10:10;98981.00;;;41.65;17.68
43503;BME280;29098;48.184;16.298;2022-08-05T13:12:40;98983.53;;;42.09;17.34
43503;BME280;29098;48.184;16.298;2022-08-05T13:15:09;98974.06;;;41.24;17.99
43503;BME280;29098;48.184;16.298;2022-08-05T13:17:34;98967.38;;;41.00;18.94
43503;BME280;29098;48.184;16.298;2022-08-05T13:22:42;98951.66;;;40.46;20.01
43503;BME280;29098;48.184;16.298;2022-08-05T13:25:11;98954.75;;;41.02;20.24
43503;BME280;29098;48.184;16.298;2022-08-05T13:27:52;98954.03;;;41.84;18.30
43503;BME280;29098;48.184;16.298;2022-08-05T13:30:20;98955.09;;;42.04;17.92
43503;BME280;29098;48.184;16.298;2022-08-05T13:32:47;98960.59;;;42.12;18.82
43503;BME280;29098;48.184;16.298;2022-08-05T13:35:14;98947.88;;;41.51;18.94
43503;BME280;29098;48.184;16.298;2022-08-05T13:37:40;98936.81;;;42.22;19.29
43503;BME280;29098;48.184;16.298;2022-08-05T13:40:07;98951.47;;;42.64;18.41